sensor_id;sensor_type;location;lat;lon;timestamp;pressure;altitude;pressure_sealevel;temperature;humidity
44313;BME280;38833;51.142;-0.974;2024-03-23T00:52:00;99982.73;;;27.20;27.75
44313;BME280;38833;51.142;-0.974;2024-03-23T00:54:34;99979.40;;;27.06;27.89
44313;BME280;38833;51.142;-0.974;2024-03-23T00:57:07;99978.68;;;26.88;27.80
44313;BME280;38833;51.142;-0.974;2024-03-23T01:01:38;99977.06;;;27.30;27.80
44313;BME280;38833;51.142;-0.974;2024-03-23T01:04:11;99976.81;;;27.12;27.73
44313;BME280;38833;51.142;-0.974;2024-03-23T01:06:44;99976.50;;;26.89;27.71
44313;BME280;38833;51.142;-0.974;2024-03-23T01:09:18;99977.88;;;27.10;27.72
44313;BME280;38833;51.142;-0.974;2024-03-23T01:11:51;99982.05;;;26.97;27.84
44313;BME280;38833;51.142;-0.974;2024-03-23T01:14:24;99976.55;;;26.90;27.86
44313;BME280;38833;51.142;-0.974;2024-03-23T01:16:58;99976.03;;;26.92;27.83
44313;BME280;38833;51.142;-0.974;2024-03-23T01:19:31;99977.77;;;26.97;27.96
44313;BME280;38833;51.142;-0.974;2024-03-23T01:22:05;99977.87;;;26.73;27.97
44313;BME280;38833;51.142;-0.974;2024-03-23T01:24:38;99982.15;;;26.70;27.96
44313;BME280;38833;51.142;-0.974;2024-03-23T01:27:12;99981.30;;;26.59;28.05
44313;BME280;38833;51.142;-0.974;2024-03-23T01:29:45;99980.07;;;26.63;27.97
44313;BME280;38833;51.142;-0.974;2024-03-23T01:32:19;99974.94;;;26.50;28.10
44313;BME280;38833;51.142;-0.974;2024-03-23T01:34:52;99976.51;;;26.84;27.96
44313;BME280;38833;51.142;-0.974;2024-03-23T01:37:25;99974.75;;;26.51;28.05
44313;BME280;38833;51.142;-0.974;2024-03-23T01:39:58;99973.28;;;26.65;28.10
44313;BME280;38833;51.142;-0.974;2024-03-23T01:42:31;99972.16;;;26.63;28.11
44313;BME280;38833;51.142;-0.974;2024-03-23T01:45:08;99973.18;;;26.61;28.11
44313;BME280;38833;51.142;-0.974;2024-03-23T01:47:42;99978.51;;;26.34;28.10
44313;BME280;38833;51.142;-0.974;2024-03-23T01:50:15;99974.72;;;26.29;28.12
44313;BME280;38833;51.142;-0.974;2024-03-23T01:52:49;99967.99;;;26.31;28.15
44313;BME280;38833;51.142;-0.974;2024-03-23T01:55:23;99966.00;;;26.43;28.18
44313;BME280;38833;51.142;-0.974;2024-03-23T01:57:57;99966.17;;;26.48;28.10
44313;BME280;38833;51.142;-0.974;2024-03-23T02:00:30;99963.07;;;26.19;28.14
44313;BME280;38833;51.142;-0.974;2024-03-23T02:03:22;99961.56;;;26.62;28.18
44313;BME280;38833;51.142;-0.974;2024-03-23T02:05:56;99957.51;;;26.02;28.26
44313;BME280;38833;51.142;-0.974;2024-03-23T02:08:30;99957.41;;;26.32;28.16
44313;BME280;38833;51.142;-0.974;2024-03-23T02:11:04;99958.12;;;26.02;28.20
44313;BME280;38833;51.142;-0.974;2024-03-23T02:13:37;99959.75;;;26.26;28.19
44313;BME280;38833;51.142;-0.974;2024-03-23T02:16:10;99964.94;;;26.21;28.22
44313;BME280;38833;51.142;-0.974;2024-03-23T02:18:43;99963.93;;;26.21;28.18
44313;BME280;38833;51.142;-0.974;2024-03-23T02:21:17;99968.56;;;26.10;28.26
44313;BME280;38833;51.142;-0.974;2024-03-23T02:23:50;99967.28;;;26.32;28.27
44313;BME280;38833;51.142;-0.974;2024-03-23T02:26:23;99967.26;;;25.80;28.27
44313;BME280;38833;51.142;-0.974;2024-03-23T02:28:56;99963.58;;;25.78;28.25
44313;BME280;38833;51.142;-0.974;2024-03-23T02:31:30;99967.42;;;26.26;28.27
44313;BME280;38833;51.142;-0.974;2024-03-23T02:34:03;99964.39;;;25.97;28.25
44313;BME280;38833;51.142;-0.974;2024-03-23T02:36:36;99960.18;;;25.91;28.29
44313;BME280;38833;51.142;-0.974;2024-03-23T02:39:09;99954.95;;;26.21;28.23
44313;BME280;38833;51.142;-0.974;2024-03-23T02:41:43;99955.76;;;25.91;28.26
44313;BME280;38833;51.142;-0.974;2024-03-23T02:44:17;99955.71;;;26.11;28.31
44313;BME280;38833;51.142;-0.974;2024-03-23T02:46:50;99953.16;;;25.89;28.31
44313;BME280;38833;51.142;-0.974;2024-03-23T02:49:23;99950.37;;;26.17;28.25
44313;BME280;38833;51.142;-0.974;2024-03-23T02:51:57;99955.42;;;25.72;28.35
44313;BME280;38833;51.142;-0.974;2024-03-23T02:54:30;99957.33;;;25.75;28.34
44313;BME280;38833;51.142;-0.974;2024-03-23T02:57:03;99956.62;;;25.91;28.38
44313;BME280;38833;51.142;-0.974;2024-03-23T02:59:36;99960.31;;;25.89;28.39
44313;BME280;38833;51.142;-0.974;2024-03-23T03:02:11;99957.97;;;25.97;28.30
44313;BME280;38833;51.142;-0.974;2024-03-23T03:04:44;99957.54;;;25.78;28.40
44313;BME280;38833;51.142;-0.974;2024-03-23T03:07:17;99959.79;;;25.60;28.32
44313;BME280;38833;51.142;-0.974;2024-03-23T03:15:29;99953.76;;;25.81;27.84
44313;BME280;38833;51.142;-0.974;2024-03-23T03:18:03;99954.31;;;26.11;27.69
44313;BME280;38833;51.142;-0.974;2024-03-23T03:20:38;99949.31;;;25.85;27.69
44313;BME280;38833;51.142;-0.974;2024-03-23T03:23:11;99947.93;;;25.97;27.77
44313;BME280;38833;51.142;-0.974;2024-03-23T03:25:44;99949.02;;;26.01;27.97
44313;BME280;38833;51.142;-0.974;2024-03-23T03:28:18;99948.86;;;25.84;28.09
44313;BME280;38833;51.142;-0.974;2024-03-23T03:30:51;99945.11;;;25.77;28.16
44313;BME280;38833;51.142;-0.974;2024-03-23T03:33:25;99954.16;;;25.65;28.25
44313;BME280;38833;51.142;-0.974;2024-03-23T03:35:58;99950.81;;;25.68;28.21
44313;BME280;38833;51.142;-0.974;2024-03-23T03:38:31;99946.20;;;25.62;28.26
44313;BME280;38833;51.142;-0.974;2024-03-23T03:41:05;99938.70;;;25.54;28.29
44313;BME280;38833;51.142;-0.974;2024-03-23T03:43:38;99934.16;;;25.41;28.39
44313;BME280;38833;51.142;-0.974;2024-03-23T03:46:11;99938.30;;;25.84;28.38
44313;BME280;38833;51.142;-0.974;2024-03-23T03:48:45;99940.00;;;25.30;28.45
44313;BME280;38833;51.142;-0.974;2024-03-23T03:51:18;99942.74;;;25.33;28.38
44313;BME280;38833;51.142;-0.974;2024-03-23T03:53:51;99945.25;;;25.29;28.42
44313;BME280;38833;51.142;-0.974;2024-03-23T03:56:24;99941.70;;;25.27;28.42
44313;BME280;38833;51.142;-0.974;2024-03-23T03:58:58;99945.25;;;25.18;28.47
44313;BME280;38833;51.142;-0.974;2024-03-23T04:01:31;99947.55;;;25.19;28.47
44313;BME280;38833;51.142;-0.974;2024-03-23T04:04:04;99944.94;;;25.21;28.40
44313;BME280;38833;51.142;-0.974;2024-03-23T04:06:38;99941.67;;;25.19;28.41
44313;BME280;38833;51.142;-0.974;2024-03-23T04:09:11;99942.99;;;25.11;28.45
44313;BME280;38833;51.142;-0.974;2024-03-23T04:11:45;99944.17;;;25.10;28.42
44313;BME280;38833;51.142;-0.974;2024-03-23T04:14:18;99940.95;;;25.10;28.45
44313;BME280;38833;51.142;-0.974;2024-03-23T04:16:51;99939.23;;;25.06;28.42
44313;BME280;38833;51.142;-0.974;2024-03-23T04:19:25;99939.22;;;24.98;28.50
44313;BME280;38833;51.142;-0.974;2024-03-23T04:21:58;99939.35;;;24.69;28.50
44313;BME280;38833;51.142;-0.974;2024-03-23T04:24:31;99937.37;;;24.95;28.50
44313;BME280;38833;51.142;-0.974;2024-03-23T04:27:05;99938.46;;;25.12;28.53
44313;BME280;38833;51.142;-0.974;2024-03-23T04:29:38;99940.30;;;24.63;28.50
44313;BME280;38833;51.142;-0.974;2024-03-23T04:32:11;99938.55;;;24.93;28.41
44313;BME280;38833;51.142;-0.974;2024-03-23T04:34:45;99934.91;;;24.89;28.42
44313;BME280;38833;51.142;-0.974;2024-03-23T04:37:19;99930.79;;;25.03;28.49
44313;BME280;38833;51.142;-0.974;2024-03-23T04:39:52;99931.99;;;25.38;28.35
44313;BME280;38833;51.142;-0.974;2024-03-23T04:42:25;99932.29;;;24.99;28.49
44313;BME280;38833;51.142;-0.974;2024-03-23T04:44:58;99933.01;;;24.71;28.50
44313;BME280;38833;51.142;-0.974;2024-03-23T04:47:32;99935.65;;;24.69;28.50
44313;BME280;38833;51.142;-0.974;2024-03-23T04:50:05;99936.74;;;24.94;28.47
44313;BME280;38833;51.142;-0.974;2024-03-23T04:52:39;99937.71;;;24.84;28.53
44313;BME280;38833;51.142;-0.974;2024-03-23T04:55:12;99938.46;;;24.49;28.66
44313;BME280;38833;51.142;-0.974;2024-03-23T04:57:45;99937.95;;;25.01;28.57
44313;BME280;38833;51.142;-0.974;2024-03-23T05:00:19;99938.14;;;24.55;28.52
44313;BME280;38833;51.142;-0.974;2024-03-23T05:02:52;99931.99;;;24.72;28.55
44313;BME280;38833;51.142;-0.974;2024-03-23T05:05:25;99927.34;;;24.63;28.62
44313;BME280;38833;51.142;-0.974;2024-03-23T05:07:58;99928.79;;;24.44;28.58
44313;BME280;38833;51.142;-0.974;2024-03-23T05:10:32;99924.77;;;24.36;28.62
44313;BME280;38833;51.142;-0.974;2024-03-23T05:13:05;99922.86;;;24.60;28.57
44313;BME280;38833;51.142;-0.974;2024-03-23T05:15:38;99920.18;;;24.93;28.46
44313;BME280;38833;51.142;-0.974;2024-03-23T05:18:11;99918.75;;;24.83;28.58
44313;BME280;38833;51.142;-0.974;2024-03-23T05:20:44;99919.08;;;24.53;28.59
44313;BME280;38833;51.142;-0.974;2024-03-23T05:23:18;99923.29;;;24.77;28.57
44313;BME280;38833;51.142;-0.974;2024-03-23T05:25:51;99919.56;;;24.83;28.47
44313;BME280;38833;51.142;-0.974;2024-03-23T05:28:24;99919.59;;;24.73;28.53
44313;BME280;38833;51.142;-0.974;2024-03-23T05:30:58;99918.66;;;24.22;28.59
44313;BME280;38833;51.142;-0.974;2024-03-23T05:33:31;99915.68;;;24.70;28.59
44313;BME280;38833;51.142;-0.974;2024-03-23T05:36:05;99913.55;;;24.60;28.61
44313;BME280;38833;51.142;-0.974;2024-03-23T05:41:37;99907.82;;;24.70;28.47
44313;BME280;38833;51.142;-0.974;2024-03-23T05:44:11;99908.05;;;24.52;28.40
44313;BME280;38833;51.142;-0.974;2024-03-23T05:46:44;99902.66;;;24.68;28.43
44313;BME280;38833;51.142;-0.974;2024-03-23T05:49:17;99903.13;;;24.48;28.41
44313;BME280;38833;51.142;-0.974;2024-03-23T05:51:50;99901.16;;;24.64;28.45
44313;BME280;38833;51.142;-0.974;2024-03-23T05:54:23;99897.48;;;24.83;28.52
44313;BME280;38833;51.142;-0.974;2024-03-23T05:56:57;99900.42;;;24.51;28.54
44313;BME280;38833;51.142;-0.974;2024-03-23T05:59:30;99899.75;;;24.43;28.59
44313;BME280;38833;51.142;-0.974;2024-03-23T06:02:03;99900.40;;;24.25;28.52
44313;BME280;38833;51.142;-0.974;2024-03-23T06:04:36;99895.27;;;24.35;28.61
44313;BME280;38833;51.142;-0.974;2024-03-23T06:07:10;99894.85;;;24.40;28.56
44313;BME280;38833;51.142;-0.974;2024-03-23T06:09:43;99894.10;;;24.31;28.62
44313;BME280;38833;51.142;-0.974;2024-03-23T06:12:17;99888.50;;;24.19;28.72
44313;BME280;38833;51.142;-0.974;2024-03-23T06:14:50;99883.99;;;24.31;28.58
44313;BME280;38833;51.142;-0.974;2024-03-23T06:17:23;99887.11;;;24.22;28.66
44313;BME280;38833;51.142;-0.974;2024-03-23T06:19:56;99893.27;;;24.37;28.51
44313;BME280;38833;51.142;-0.974;2024-03-23T06:22:30;99892.11;;;24.35;28.52
44313;BME280;38833;51.142;-0.974;2024-03-23T06:25:04;99897.09;;;24.27;28.56
44313;BME280;38833;51.142;-0.974;2024-03-23T06:27:37;99896.54;;;24.06;28.52
44313;BME280;38833;51.142;-0.974;2024-03-23T06:30:12;99896.73;;;24.04;28.54
44313;BME280;38833;51.142;-0.974;2024-03-23T06:32:46;99894.07;;;24.53;28.54
44313;BME280;38833;51.142;-0.974;2024-03-23T06:35:19;99892.80;;;24.25;28.52
44313;BME280;38833;51.142;-0.974;2024-03-23T06:37:52;99895.80;;;24.17;28.57
44313;BME280;38833;51.142;-0.974;2024-03-23T06:40:26;99891.88;;;24.32;28.43
44313;BME280;38833;51.142;-0.974;2024-03-23T06:42:59;99889.63;;;24.40;28.41
44313;BME280;38833;51.142;-0.974;2024-03-23T06:45:32;99887.92;;;23.87;28.94
44313;BME280;38833;51.142;-0.974;2024-03-23T06:48:06;99888.01;;;23.59;29.32
44313;BME280;38833;51.142;-0.974;2024-03-23T06:50:39;99885.65;;;23.76;29.19
44313;BME280;38833;51.142;-0.974;2024-03-23T06:53:13;99883.81;;;24.17;29.08
44313;BME280;38833;51.142;-0.974;2024-03-23T06:55:50;99882.34;;;24.57;28.77
44313;BME280;38833;51.142;-0.974;2024-03-23T06:58:24;99877.65;;;24.23;28.86
44313;BME280;38833;51.142;-0.974;2024-03-23T07:00:58;99876.85;;;24.63;28.56
44313;BME280;38833;51.142;-0.974;2024-03-23T07:03:31;99882.56;;;24.70;28.56
44313;BME280;38833;51.142;-0.974;2024-03-23T07:06:04;99877.52;;;24.69;28.64
44313;BME280;38833;51.142;-0.974;2024-03-23T07:08:38;99880.56;;;24.86;28.55
44313;BME280;38833;51.142;-0.974;2024-03-23T07:11:11;99882.82;;;24.95;28.52
44313;BME280;38833;51.142;-0.974;2024-03-23T07:13:44;99883.37;;;25.17;28.34
44313;BME280;38833;51.142;-0.974;2024-03-23T07:16:18;99884.92;;;25.28;28.29
44313;BME280;38833;51.142;-0.974;2024-03-23T07:18:51;99887.52;;;25.58;28.10
44313;BME280;38833;51.142;-0.974;2024-03-23T07:21:24;99889.27;;;25.23;28.05
44313;BME280;38833;51.142;-0.974;2024-03-23T07:23:58;99887.24;;;25.36;27.99
44313;BME280;38833;51.142;-0.974;2024-03-23T07:26:31;99881.42;;;25.31;28.10
44313;BME280;38833;51.142;-0.974;2024-03-23T07:29:04;99875.89;;;25.50;27.97
44313;BME280;38833;51.142;-0.974;2024-03-23T07:31:38;99874.87;;;25.67;27.85
44313;BME280;38833;51.142;-0.974;2024-03-23T07:34:11;99870.37;;;26.09;27.73
44313;BME280;38833;51.142;-0.974;2024-03-23T07:36:45;99869.92;;;26.07;27.58
44313;BME280;38833;51.142;-0.974;2024-03-23T07:39:18;99861.08;;;25.82;27.88
44313;BME280;38833;51.142;-0.974;2024-03-23T07:41:51;99858.69;;;25.93;27.59
44313;BME280;38833;51.142;-0.974;2024-03-23T07:44:24;99855.67;;;26.32;27.52
44313;BME280;38833;51.142;-0.974;2024-03-23T07:46:59;99844.24;;;26.50;27.41
44313;BME280;38833;51.142;-0.974;2024-03-23T07:50:23;99839.37;;;26.00;27.49
44313;BME280;38833;51.142;-0.974;2024-03-23T07:52:57;99842.56;;;26.06;27.46
44313;BME280;38833;51.142;-0.974;2024-03-23T07:55:30;99847.13;;;26.35;27.28
44313;BME280;38833;51.142;-0.974;2024-03-23T07:58:03;99845.14;;;26.44;27.43
44313;BME280;38833;51.142;-0.974;2024-03-23T08:00:37;99846.30;;;26.50;27.23
44313;BME280;38833;51.142;-0.974;2024-03-23T08:03:10;99852.54;;;26.69;27.30
44313;BME280;38833;51.142;-0.974;2024-03-23T08:05:43;99854.19;;;26.46;27.35
44313;BME280;38833;51.142;-0.974;2024-03-23T08:08:16;99846.03;;;26.62;27.23
44313;BME280;38833;51.142;-0.974;2024-03-23T08:10:50;99848.75;;;26.80;27.15
44313;BME280;38833;51.142;-0.974;2024-03-23T08:13:24;99849.04;;;26.86;27.16
44313;BME280;38833;51.142;-0.974;2024-03-23T08:15:57;99847.78;;;26.40;27.41
44313;BME280;38833;51.142;-0.974;2024-03-23T08:18:31;99842.90;;;27.08;27.05
44313;BME280;38833;51.142;-0.974;2024-03-23T08:21:05;99838.46;;;26.47;27.43
44313;BME280;38833;51.142;-0.974;2024-03-23T08:23:39;99843.74;;;26.95;27.23
44313;BME280;38833;51.142;-0.974;2024-03-23T08:26:14;99841.35;;;26.79;27.39
44313;BME280;38833;51.142;-0.974;2024-03-23T08:28:47;99842.56;;;27.32;26.93
44313;BME280;38833;51.142;-0.974;2024-03-23T08:31:21;99841.37;;;26.57;27.42
44313;BME280;38833;51.142;-0.974;2024-03-23T08:33:54;99840.98;;;26.76;27.27
44313;BME280;38833;51.142;-0.974;2024-03-23T08:36:27;99844.73;;;26.85;27.40
44313;BME280;38833;51.142;-0.974;2024-03-23T08:39:00;99845.49;;;26.75;27.50
44313;BME280;38833;51.142;-0.974;2024-03-23T08:41:34;99844.35;;;26.83;27.25
44313;BME280;38833;51.142;-0.974;2024-03-23T08:44:07;99848.26;;;26.36;27.45
44313;BME280;38833;51.142;-0.974;2024-03-23T08:46:40;99838.93;;;27.02;27.36
44313;BME280;38833;51.142;-0.974;2024-03-23T08:49:14;99835.79;;;26.43;27.47
44313;BME280;38833;51.142;-0.974;2024-03-23T08:51:47;99836.38;;;27.34;27.27
44313;BME280;38833;51.142;-0.974;2024-03-23T08:54:20;99824.23;;;27.54;25.85
44313;BME280;38833;51.142;-0.974;2024-03-23T08:56:53;99820.49;;;27.21;25.84
44313;BME280;38833;51.142;-0.974;2024-03-23T08:59:27;99810.19;;;27.39;25.58
44313;BME280;38833;51.142;-0.974;2024-03-23T09:02:00;99808.70;;;27.58;25.51
44313;BME280;38833;51.142;-0.974;2024-03-23T09:04:33;99804.76;;;27.45;25.33
44313;BME280;38833;51.142;-0.974;2024-03-23T09:07:06;99805.29;;;27.57;25.41
44313;BME280;38833;51.142;-0.974;2024-03-23T09:09:40;99810.87;;;27.46;25.49
44313;BME280;38833;51.142;-0.974;2024-03-23T09:12:13;99805.68;;;27.30;25.64
44313;BME280;38833;51.142;-0.974;2024-03-23T09:14:46;99801.26;;;27.12;25.72
44313;BME280;38833;51.142;-0.974;2024-03-23T09:17:20;99799.19;;;27.01;25.73
44313;BME280;38833;51.142;-0.974;2024-03-23T09:19:53;99792.04;;;26.86;25.88
44313;BME280;38833;51.142;-0.974;2024-03-23T09:22:27;99788.92;;;26.73;25.97
44313;BME280;38833;51.142;-0.974;2024-03-23T09:25:00;99783.52;;;26.69;25.96
44313;BME280;38833;51.142;-0.974;2024-03-23T09:27:34;99783.75;;;27.10;26.00
44313;BME280;38833;51.142;-0.974;2024-03-23T09:30:07;99784.00;;;26.56;26.47
44313;BME280;38833;51.142;-0.974;2024-03-23T09:32:43;99776.34;;;26.87;26.83
44313;BME280;38833;51.142;-0.974;2024-03-23T09:35:17;99773.77;;;26.72;26.69
44313;BME280;38833;51.142;-0.974;2024-03-23T09:37:50;99773.79;;;26.86;26.56
44313;BME280;38833;51.142;-0.974;2024-03-23T09:40:23;99771.25;;;26.95;26.39
44313;BME280;38833;51.142;-0.974;2024-03-23T09:42:57;99771.30;;;26.96;26.28
44313;BME280;38833;51.142;-0.974;2024-03-23T09:45:30;99765.96;;;27.01;26.25
44313;BME280;38833;51.142;-0.974;2024-03-23T09:48:06;99771.62;;;26.94;26.29
44313;BME280;38833;51.142;-0.974;2024-03-23T09:50:42;99767.35;;;26.77;26.54
44313;BME280;38833;51.142;-0.974;2024-03-23T09:53:15;99761.84;;;26.76;26.44
44313;BME280;38833;51.142;-0.974;2024-03-23T09:55:49;99762.52;;;27.05;26.38
44313;BME280;38833;51.142;-0.974;2024-03-23T10:00:55;99759.52;;;27.00;26.18
44313;BME280;38833;51.142;-0.974;2024-03-23T10:03:28;99756.91;;;26.75;26.27
44313;BME280;38833;51.142;-0.974;2024-03-23T10:06:02;99754.29;;;27.03;26.49
44313;BME280;38833;51.142;-0.974;2024-03-23T10:11:40;99744.46;;;26.69;26.26
44313;BME280;38833;51.142;-0.974;2024-03-23T10:14:28;99747.11;;;26.97;26.20
44313;BME280;38833;51.142;-0.974;2024-03-23T10:17:12;99737.08;;;26.96;26.09
44313;BME280;38833;51.142;-0.974;2024-03-23T10:19:46;99741.71;;;26.73;26.10
44313;BME280;38833;51.142;-0.974;2024-03-23T10:22:22;99738.62;;;27.03;26.06
44313;BME280;38833;51.142;-0.974;2024-03-23T10:25:08;99729.95;;;26.91;26.16
44313;BME280;38833;51.142;-0.974;2024-03-23T10:27:41;99728.83;;;26.63;26.17
44313;BME280;38833;51.142;-0.974;2024-03-23T10:30:16;99724.26;;;26.54;26.29
44313;BME280;38833;51.142;-0.974;2024-03-23T10:32:50;99728.53;;;26.79;26.17
44313;BME280;38833;51.142;-0.974;2024-03-23T10:35:23;99720.08;;;26.79;26.15
44313;BME280;38833;51.142;-0.974;2024-03-23T10:37:56;99717.77;;;26.66;26.19
44313;BME280;38833;51.142;-0.974;2024-03-23T10:40:30;99715.88;;;26.35;26.31
44313;BME280;38833;51.142;-0.974;2024-03-23T10:43:04;99713.85;;;26.40;26.25
44313;BME280;38833;51.142;-0.974;2024-03-23T10:45:37;99715.99;;;26.41;26.36
44313;BME280;38833;51.142;-0.974;2024-03-23T10:48:11;99707.39;;;26.46;26.31
44313;BME280;38833;51.142;-0.974;2024-03-23T10:50:44;99694.68;;;26.41;26.30
44313;BME280;38833;51.142;-0.974;2024-03-23T10:53:18;99694.06;;;26.39;26.32
44313;BME280;38833;51.142;-0.974;2024-03-23T10:55:52;99692.20;;;26.25;26.40
44313;BME280;38833;51.142;-0.974;2024-03-23T10:58:30;99688.56;;;26.23;26.31
44313;BME280;38833;51.142;-0.974;2024-03-23T11:01:04;99685.45;;;26.18;26.41
44313;BME280;38833;51.142;-0.974;2024-03-23T11:03:39;99685.78;;;26.14;26.34
44313;BME280;38833;51.142;-0.974;2024-03-23T11:06:34;99678.92;;;26.42;26.29
44313;BME280;38833;51.142;-0.974;2024-03-23T11:09:38;99679.15;;;25.86;26.28
44313;BME280;38833;51.142;-0.974;2024-03-23T11:12:29;99675.19;;;26.03;26.26
44313;BME280;38833;51.142;-0.974;2024-03-23T11:15:04;99665.04;;;26.33;26.13
44313;BME280;38833;51.142;-0.974;2024-03-23T11:17:38;99667.62;;;26.22;26.19
44313;BME280;38833;51.142;-0.974;2024-03-23T11:20:11;99673.05;;;26.23;26.15
44313;BME280;38833;51.142;-0.974;2024-03-23T11:22:45;99661.21;;;25.96;26.17
44313;BME280;38833;51.142;-0.974;2024-03-23T11:25:20;99654.96;;;26.36;25.90
44313;BME280;38833;51.142;-0.974;2024-03-23T11:27:55;99651.57;;;25.92;26.03
44313;BME280;38833;51.142;-0.974;2024-03-23T11:30:28;99651.42;;;26.16;25.92
44313;BME280;38833;51.142;-0.974;2024-03-23T11:33:02;99663.18;;;26.06;25.94
44313;BME280;38833;51.142;-0.974;2024-03-23T11:35:38;99669.87;;;25.81;26.13
44313;BME280;38833;51.142;-0.974;2024-03-23T11:38:12;99680.90;;;25.85;26.04
44313;BME280;38833;51.142;-0.974;2024-03-23T11:40:47;99680.16;;;25.89;25.91
44313;BME280;38833;51.142;-0.974;2024-03-23T11:43:21;99680.64;;;25.81;25.95
44313;BME280;38833;51.142;-0.974;2024-03-23T11:45:54;99677.12;;;25.76;25.95
44313;BME280;38833;51.142;-0.974;2024-03-23T11:48:27;99669.61;;;25.96;26.07
44313;BME280;38833;51.142;-0.974;2024-03-23T11:51:01;99665.11;;;25.68;25.53
44313;BME280;38833;51.142;-0.974;2024-03-23T11:53:34;99668.34;;;25.61;24.64
44313;BME280;38833;51.142;-0.974;2024-03-23T11:56:07;99655.68;;;25.77;24.70
44313;BME280;38833;51.142;-0.974;2024-03-23T11:58:40;99659.92;;;25.46;24.88
44313;BME280;38833;51.142;-0.974;2024-03-23T12:01:14;99651.61;;;25.96;24.94
44313;BME280;38833;51.142;-0.974;2024-03-23T12:03:47;99643.99;;;25.83;24.83
44313;BME280;38833;51.142;-0.974;2024-03-23T12:06:20;99632.54;;;25.54;25.08
44313;BME280;38833;51.142;-0.974;2024-03-23T12:08:53;99622.69;;;25.25;25.32
44313;BME280;38833;51.142;-0.974;2024-03-23T12:11:39;99612.25;;;25.16;25.43
44313;BME280;38833;51.142;-0.974;2024-03-23T12:14:15;99611.88;;;24.86;25.42
44313;BME280;38833;51.142;-0.974;2024-03-23T12:16:48;99604.14;;;25.33;25.55
44313;BME280;38833;51.142;-0.974;2024-03-23T12:19:21;99609.67;;;25.36;25.55
44313;BME280;38833;51.142;-0.974;2024-03-23T12:21:54;99613.62;;;25.29;25.36
44313;BME280;38833;51.142;-0.974;2024-03-23T12:24:27;99617.57;;;25.30;25.18
44313;BME280;38833;51.142;-0.974;2024-03-23T12:27:02;99614.25;;;25.53;25.33
44313;BME280;38833;51.142;-0.974;2024-03-23T12:29:36;99618.02;;;25.47;25.41
44313;BME280;38833;51.142;-0.974;2024-03-23T12:32:10;99610.01;;;25.26;25.48
44313;BME280;38833;51.142;-0.974;2024-03-23T12:34:43;99602.21;;;25.44;25.61
44313;BME280;38833;51.142;-0.974;2024-03-23T12:37:16;99607.61;;;25.41;25.57
44313;BME280;38833;51.142;-0.974;2024-03-23T12:39:50;99636.10;;;25.53;25.50
44313;BME280;38833;51.142;-0.974;2024-03-23T12:42:23;99633.10;;;24.97;25.59
44313;BME280;38833;51.142;-0.974;2024-03-23T12:44:56;99638.10;;;25.22;25.44
44313;BME280;38833;51.142;-0.974;2024-03-23T12:47:30;99622.31;;;24.91;25.40
44313;BME280;38833;51.142;-0.974;2024-03-23T12:50:04;99610.45;;;25.19;25.32
44313;BME280;38833;51.142;-0.974;2024-03-23T12:52:38;99602.58;;;25.12;25.30
44313;BME280;38833;51.142;-0.974;2024-03-23T12:55:11;99599.85;;;25.36;25.23
44313;BME280;38833;51.142;-0.974;2024-03-23T12:57:45;99596.98;;;25.29;25.25
44313;BME280;38833;51.142;-0.974;2024-03-23T13:00:18;99590.29;;;24.83;25.24
44313;BME280;38833;51.142;-0.974;2024-03-23T13:02:52;99585.86;;;25.06;25.22
44313;BME280;38833;51.142;-0.974;2024-03-23T13:05:25;99581.29;;;25.34;25.08
44313;BME280;38833;51.142;-0.974;2024-03-23T13:07:58;99581.95;;;25.20;25.30
44313;BME280;38833;51.142;-0.974;2024-03-23T13:10:32;99569.70;;;25.09;25.32
44313;BME280;38833;51.142;-0.974;2024-03-23T13:13:05;99567.21;;;24.92;25.35
44313;BME280;38833;51.142;-0.974;2024-03-23T13:15:39;99569.22;;;25.07;25.48
44313;BME280;38833;51.142;-0.974;2024-03-23T13:18:12;99562.79;;;24.61;25.87
44313;BME280;38833;51.142;-0.974;2024-03-23T13:20:45;99558.27;;;24.99;25.81
44313;BME280;38833;51.142;-0.974;2024-03-23T13:23:19;99548.45;;;24.90;26.09
44313;BME280;38833;51.142;-0.974;2024-03-23T13:25:53;99544.20;;;25.09;25.99
44313;BME280;38833;51.142;-0.974;2024-03-23T13:28:26;99544.66;;;25.05;26.16
44313;BME280;38833;51.142;-0.974;2024-03-23T13:31:00;99547.62;;;24.96;26.40
44313;BME280;38833;51.142;-0.974;2024-03-23T13:33:33;99545.15;;;25.02;26.39
44313;BME280;38833;51.142;-0.974;2024-03-23T13:36:07;99533.65;;;25.02;26.47
44313;BME280;38833;51.142;-0.974;2024-03-23T13:38:40;99528.40;;;25.04;26.38
44313;BME280;38833;51.142;-0.974;2024-03-23T13:41:13;99531.88;;;25.18;26.35
44313;BME280;38833;51.142;-0.974;2024-03-23T13:43:47;99530.90;;;25.05;26.55
44313;BME280;38833;51.142;-0.974;2024-03-23T13:46:20;99609.97;;;25.05;26.64
44313;BME280;38833;51.142;-0.974;2024-03-23T13:48:54;99615.26;;;25.00;26.76
44313;BME280;38833;51.142;-0.974;2024-03-23T13:51:28;99606.55;;;25.11;26.75
44313;BME280;38833;51.142;-0.974;2024-03-23T13:54:01;99590.07;;;24.84;26.83
44313;BME280;38833;51.142;-0.974;2024-03-23T13:56:34;99582.11;;;24.81;26.69
44313;BME280;38833;51.142;-0.974;2024-03-23T13:59:08;99579.00;;;25.08;26.84
44313;BME280;38833;51.142;-0.974;2024-03-23T14:01:41;99570.44;;;24.94;26.85
44313;BME280;38833;51.142;-0.974;2024-03-23T14:04:14;99574.55;;;25.13;26.85
44313;BME280;38833;51.142;-0.974;2024-03-23T14:06:48;99575.60;;;24.89;26.85
44313;BME280;38833;51.142;-0.974;2024-03-23T14:09:21;99568.41;;;24.87;26.85
44313;BME280;38833;51.142;-0.974;2024-03-23T14:11:55;99566.60;;;24.97;27.01
44313;BME280;38833;51.142;-0.974;2024-03-23T14:14:28;99560.17;;;24.83;26.91
44313;BME280;38833;51.142;-0.974;2024-03-23T14:17:01;99559.58;;;24.89;27.07
44313;BME280;38833;51.142;-0.974;2024-03-23T14:19:35;99561.90;;;24.85;27.14
44313;BME280;38833;51.142;-0.974;2024-03-23T14:22:08;99544.94;;;25.06;27.04
44313;BME280;38833;51.142;-0.974;2024-03-23T14:24:41;99522.98;;;24.82;27.10
44313;BME280;38833;51.142;-0.974;2024-03-23T14:27:15;99515.98;;;24.74;27.23
44313;BME280;38833;51.142;-0.974;2024-03-23T14:29:48;99520.21;;;24.92;27.27
44313;BME280;38833;51.142;-0.974;2024-03-23T14:32:22;99516.74;;;24.71;27.28